Time;durP1;ratioP1;P1;durP2;ratioP2;P2;SDS_P1;SDS_P2;PMS_P1;PMS_P2;Temp;Humidity;BMP_temperature;BMP_pressure;BME280_temperature;BME280_humidity;BME280_pressure;Samples;Min_cycle;Max_cycle;Signal;HPM_P1;HPM_P2
2023/04/22 00:00:53;;;;;;;4.93;4.40;;;;;;;8.51;99.91;62873.03;5047913;28;20206;-79
2023/04/22 00:03:22;;;;;;;5.03;4.55;;;;;;;8.44;100.00;62866.31;5051017;28;20214;-78
2023/04/22 00:05:49;;;;;;;5.00;4.65;;;;;;;8.53;100.00;62877.63;5050818;28;20201;-77
2023/04/22 00:08:16;;;;;;;5.93;4.82;;;;;;;8.46;100.00;62872.94;5047027;28;20391;-78
2023/04/22 00:10:45;;;;;;;6.90;5.15;;;;;;;8.38;100.00;62865.19;5047559;28;20233;-80
2023/04/22 00:13:12;;;;;;;5.50;5.05;;;;;;;8.33;100.00;62856.97;5047070;28;20265;-78
2023/04/22 00:15:39;;;;;;;4.20;3.90;;;;;;;8.31;100.00;62852.38;5047150;28;20434;-79
2023/04/22 00:18:12;;;;;;;5.20;4.80;;;;;;;8.34;100.00;62860.53;5048026;28;20311;-77
2023/04/22 00:20:40;;;;;;;5.03;4.55;;;;;;;8.28;100.00;62854.34;5046410;28;20205;-79
2023/04/22 00:23:07;;;;;;;5.00;4.55;;;;;;;8.28;100.00;62851.81;5048342;28;20226;-79
2023/04/22 00:25:34;;;;;;;5.22;4.72;;;;;;;8.30;100.00;62853.88;5032621;28;20191;-78
2023/04/22 00:28:02;;;;;;;3.90;3.50;;;;;;;8.21;100.00;62843.06;5044488;28;20226;-77
2023/04/22 00:30:30;;;;;;;5.50;4.43;;;;;;;8.24;100.00;62842.59;5048744;28;20225;-77
2023/04/22 00:32:57;;;;;;;5.35;4.93;;;;;;;8.15;100.00;62838.88;5050440;28;20233;-77
2023/04/22 00:35:24;;;;;;;5.30;4.90;;;;;;;8.10;100.00;62833.72;5049533;28;20778;-77
2023/04/22 00:37:51;;;;;;;5.13;4.68;;;;;;;8.15;100.00;62839.41;5047421;28;20240;-78
2023/04/22 00:40:18;;;;;;;6.90;5.20;;;;;;;8.13;100.00;62839.34;5047319;28;20503;-78
2023/04/22 00:42:46;;;;;;;7.78;5.43;;;;;;;8.05;100.00;62829.09;5049735;28;20447;-78
2023/04/22 00:45:17;;;;;;;8.50;6.20;;;;;;;8.07;100.00;62833.16;5045981;28;20206;-79
2023/04/22 00:47:45;;;;;;;6.07;5.47;;;;;;;8.10;100.00;62831.72;5045489;28;20264;-79
2023/04/22 00:50:12;;;;;;;6.70;5.80;;;;;;;8.12;100.00;62836.31;5051413;28;20232;-78
2023/04/22 00:52:39;;;;;;;6.25;5.68;;;;;;;8.07;100.00;62828.63;5049477;28;20218;-79
2023/04/22 00:55:07;;;;;;;5.78;5.28;;;;;;;8.05;100.00;62826.03;5046496;28;20198;-80
2023/04/22 00:57:34;;;;;;;6.38;4.82;;;;;;;7.93;100.00;62811.09;5049454;28;20241;-79
2023/04/22 01:00:03;;;;;;;5.53;4.40;;;;;;;8.05;100.00;62831.09;5049119;28;20217;-77
2023/04/22 01:02:32;;;;;;;4.90;4.50;;;;;;;8.09;100.00;62838.28;5046283;28;20224;-79
2023/04/22 01:05:00;;;;;;;5.50;5.00;;;;;;;8.10;100.00;62836.25;5050474;28;20233;-77
2023/04/22 01:07:26;;;;;;;11.20;8.60;;;;;;;8.07;100.00;62828.63;5053161;28;20221;-78
2023/04/22 01:09:53;;;;;;;8.85;7.60;;;;;;;8.14;100.00;62832.78;5052288;28;20227;-79
2023/04/22 01:12:20;;;;;;;13.30;10.95;;;;;;;8.14;100.00;62835.81;5052191;28;20236;-78
2023/04/22 01:14:47;;;;;;;7.22;5.50;;;;;;;8.06;100.00;62829.59;5050699;28;20295;-78
2023/04/22 01:17:18;;;;;;;5.85;5.35;;;;;;;7.98;100.00;62821.31;5050886;28;20229;-77
2023/04/22 01:19:47;;;;;;;9.38;6.40;;;;;;;7.86;100.00;62804.38;5032862;28;20237;-77
2023/04/22 01:22:15;;;;;;;5.70;5.30;;;;;;;7.85;100.00;62805.88;5047593;28;20304;-77
2023/04/22 01:24:43;;;;;;;11.20;6.63;;;;;;;7.88;100.00;62811.00;5051414;28;20205;-78
2023/04/22 01:27:11;;;;;;;6.35;5.72;;;;;;;7.86;100.00;62812.00;5053153;28;20218;-78
2023/04/22 01:29:38;;;;;;;9.13;6.50;;;;;;;7.80;100.00;62800.72;5050848;28;20268;-79
2023/04/22 01:32:06;;;;;;;7.40;6.25;;;;;;;7.79;100.00;62802.22;5053226;28;20213;-78
2023/04/22 01:34:33;;;;;;;11.35;7.30;;;;;;;7.79;100.00;62797.16;5052601;28;20261;-78
2023/04/22 01:37:00;;;;;;;7.57;6.80;;;;;;;7.74;100.00;62796.56;5051134;28;20401;-78
2023/04/22 01:39:28;;;;;;;12.43;8.02;;;;;;;7.65;100.00;62787.78;5051787;28;20225;-78
2023/04/22 01:41:57;;;;;;;8.57;7.53;;;;;;;7.75;100.00;62795.03;5052932;28;20225;-77
2023/04/22 01:44:24;;;;;;;16.00;7.55;;;;;;;7.75;100.00;62800.09;5051732;28;20204;-78
2023/04/22 01:46:51;;;;;;;10.23;9.00;;;;;;;7.70;100.00;62794.94;5053322;28;20229;-78
2023/04/22 01:49:18;;;;;;;13.02;9.02;;;;;;;7.70;100.00;62795.47;5048566;28;20205;-77
2023/04/22 01:51:45;;;;;;;12.05;10.10;;;;;;;7.76;100.00;62798.63;5049899;28;20280;-78
2023/04/22 01:54:13;;;;;;;17.00;9.07;;;;;;;7.70;100.00;62790.41;5050278;28;20202;-78
2023/04/22 01:56:40;;;;;;;8.65;7.75;;;;;;;7.71;100.00;62793.47;5052399;28;20225;-78
2023/04/22 01:59:09;;;;;;;10.38;8.55;;;;;;;7.73;100.00;62795.53;5051716;28;20210;-77
2023/04/22 02:01:35;;;;;;;9.30;7.20;;;;;;;7.68;100.00;62787.84;5051856;28;20194;-79
2023/04/22 02:04:02;;;;;;;8.38;5.53;;;;;;;7.57;100.00;62776.47;5051853;28;20320;-79
2023/04/22 02:06:31;;;;;;;6.10;5.60;;;;;;;7.63;100.00;62783.19;5049425;28;20204;-78
2023/04/22 02:08:58;;;;;;;6.82;6.00;;;;;;;7.63;100.00;62787.72;5049895;28;20448;-79
2023/04/22 02:11:25;;;;;;;5.35;4.82;;;;;;;7.67;100.00;62786.78;5052901;28;20464;-78
2023/04/22 02:13:52;;;;;;;6.20;5.47;;;;;;;7.76;100.00;62798.63;5051368;28;20194;-79
2023/04/22 02:16:20;;;;;;;8.55;5.97;;;;;;;7.80;100.00;62800.22;5053692;28;20202;-79
2023/04/22 02:18:47;;;;;;;5.38;4.97;;;;;;;7.81;100.00;62804.28;5053053;28;20572;-79
2023/04/22 02:21:15;;;;;;;5.75;5.25;;;;;;;7.79;100.00;62799.69;5050934;28;20198;-78
2023/04/22 02:23:41;;;;;;;5.72;5.30;;;;;;;7.93;100.00;62816.16;5049965;28;20234;-78
2023/04/22 02:26:08;;;;;;;6.82;5.47;;;;;;;7.88;100.00;62809.00;5051907;28;20210;-78
2023/04/22 02:28:35;;;;;;;6.03;5.43;;;;;;;7.87;100.00;62807.94;5053592;28;20268;-79
2023/04/22 02:31:02;;;;;;;7.88;6.55;;;;;;;7.97;100.00;62818.28;5052103;28;20249;-79
2023/04/22 02:33:30;;;;;;;7.18;6.03;;;;;;;7.54;100.00;62776.41;5048594;28;20240;-78
2023/04/22 02:35:58;;;;;;;6.38;5.78;;;;;;;8.01;100.00;62822.41;5050535;28;20190;-79
2023/04/22 02:38:25;;;;;;;5.95;4.97;;;;;;;8.10;100.00;62839.31;5050979;28;20226;-77
2023/04/22 02:40:52;;;;;;;7.25;6.55;;;;;;;8.09;100.00;62833.19;5052063;28;20232;-78
2023/04/22 02:43:19;;;;;;;6.47;5.72;;;;;;;8.14;100.00;62840.41;5052931;28;20218;-79
2023/04/22 02:45:46;;;;;;;7.50;6.40;;;;;;;8.12;100.00;62838.84;5051134;28;20209;-79
2023/04/22 02:48:12;;;;;;;8.45;6.50;;;;;;;8.09;100.00;62830.66;5046602;28;20511;-78
2023/04/22 02:50:41;;;;;;;9.40;6.68;;;;;;;8.02;100.00;62822.94;5049428;28;20253;-78
2023/04/22 02:53:08;;;;;;;10.27;6.38;;;;;;;8.01;100.00;62821.88;5047234;28;20222;-78
2023/04/22 02:55:36;;;;;;;7.75;7.00;;;;;;;7.82;100.00;62802.25;5049507;28;20490;-79
2023/04/22 02:58:02;;;;;;;9.23;8.27;;;;;;;7.96;100.00;62817.25;5051696;28;20210;-79
2023/04/22 03:00:29;;;;;;;17.67;10.07;;;;;;;7.81;100.00;62806.84;5047901;28;20510;-77
2023/04/22 03:02:56;;;;;;;10.18;9.02;;;;;;;7.95;100.00;62818.22;5049614;28;20233;-78
2023/04/22 03:05:23;;;;;;;14.30;10.10;;;;;;;7.92;100.00;62813.09;5047675;28;20214;-78
2023/04/22 03:07:51;;;;;;;8.52;7.57;;;;;;;7.86;100.00;62812.00;5047371;28;20230;-78
2023/04/22 03:10:18;;;;;;;10.65;7.40;;;;;;;7.84;100.00;62799.25;5047208;28;20226;-79
2023/04/22 03:12:45;;;;;;;8.82;6.30;;;;;;;7.79;100.00;62806.78;5051020;28;20210;-78
2023/04/22 03:15:12;;;;;;;7.55;6.85;;;;;;;7.73;100.00;62793.00;5048977;28;20202;-80
2023/04/22 03:17:39;;;;;;;12.25;6.57;;;;;;;7.69;100.00;62791.91;5047434;28;20226;-77
2023/04/22 03:20:07;;;;;;;7.88;6.38;;;;;;;7.67;100.00;62789.84;5047228;28;20553;-79
2023/04/22 03:22:34;;;;;;;8.70;5.93;;;;;;;7.60;100.00;62782.09;5047642;28;20210;-78
2023/04/22 03:25:03;;;;;;;6.75;6.13;;;;;;;7.60;100.00;62780.09;5049109;28;20206;-78
2023/04/22 03:27:30;;;;;;;7.03;6.35;;;;;;;7.55;100.00;62777.47;5045411;28;20222;-78
2023/04/22 03:29:57;;;;;;;7.82;6.88;;;;;;;7.49;100.00;62775.81;5047308;28;20228;-77
2023/04/22 03:32:24;;;;;;;6.57;5.90;;;;;;;7.48;100.00;62769.72;5047584;28;20239;-77
2023/04/22 03:34:51;;;;;;;6.03;5.55;;;;;;;7.45;100.00;62762.06;5047411;28;20198;-78
2023/04/22 03:37:18;;;;;;;5.65;5.15;;;;;;;7.33;100.00;62754.75;5047203;28;20226;-79
2023/04/22 03:39:45;;;;;;;6.30;5.70;;;;;;;7.40;100.00;62761.47;5045939;28;20252;-77
2023/04/22 03:42:14;;;;;;;7.70;6.00;;;;;;;7.27;100.00;62748.56;5047648;28;20388;-79
2023/04/22 03:44:41;;;;;;;6.10;5.53;;;;;;;7.30;100.00;62751.66;5049218;28;20213;-78
2023/04/22 03:47:08;;;;;;;6.72;5.57;;;;;;;7.29;100.00;62747.56;5045451;28;20281;-78
2023/04/22 03:49:36;;;;;;;5.82;5.32;;;;;;;7.27;100.00;62748.56;5047356;28;20202;-78
2023/04/22 03:52:03;;;;;;;5.85;5.25;;;;;;;7.26;100.00;62749.53;5046329;28;20275;-78
2023/04/22 03:54:30;;;;;;;5.50;4.55;;;;;;;7.22;100.00;62740.34;5044591;28;20225;-78
2023/04/22 03:56:58;;;;;;;8.18;6.63;;;;;;;7.26;100.00;62747.00;5046642;28;20527;-77
2023/04/22 03:59:26;;;;;;;8.65;6.65;;;;;;;7.33;100.00;62757.28;5047219;28;20286;-79
2023/04/22 04:01:53;;;;;;;8.45;6.03;;;;;;;7.34;100.00;62750.72;5045757;28;20226;-78
2023/04/22 04:04:22;;;;;;;8.82;7.82;;;;;;;7.44;100.00;62765.59;5045207;28;20237;-78
2023/04/22 04:06:49;;;;;;;6.22;5.70;;;;;;;7.49;100.00;62768.22;5031067;28;20404;-80
2023/04/22 04:09:16;;;;;;;8.70;6.75;;;;;;;7.53;100.00;62777.91;5036965;28;20244;-79
2023/04/22 04:11:42;;;;;;;10.45;7.53;;;;;;;7.60;100.00;62782.09;5047679;28;20244;-79
2023/04/22 04:14:09;;;;;;;11.27;8.65;;;;;;;7.70;100.00;62792.94;5045740;28;20337;-78
2023/04/22 04:16:38;;;;;;;8.18;7.32;;;;;;;7.81;100.00;62801.75;5046025;28;20276;-80
2023/04/22 04:19:05;;;;;;;9.82;8.52;;;;;;;7.90;100.00;62816.09;5044869;28;20204;-79
2023/04/22 04:21:33;;;;;;;9.57;8.25;;;;;;;8.08;100.00;62832.16;5044200;28;20369;-80
2023/04/22 04:24:00;;;;;;;8.43;7.53;;;;;;;8.26;100.00;62852.28;5044995;28;20494;-79
2023/04/22 04:26:27;;;;;;;10.23;8.13;;;;;;;8.46;100.00;62876.00;5040151;28;20202;-78
2023/04/22 04:28:56;;;;;;;11.00;7.68;;;;;;;8.51;100.00;62878.13;5047499;28;20214;-78
2023/04/22 04:31:23;;;;;;;9.57;7.53;;;;;;;8.62;100.00;62886.94;5045664;28;20226;-79
2023/04/22 04:33:52;;;;;;;11.55;8.43;;;;;;;8.76;100.00;62901.94;5043958;28;20198;-79
2023/04/22 04:36:19;;;;;;;13.30;9.57;;;;;;;8.78;100.00;62901.47;5045483;28;20213;-79
2023/04/22 04:38:47;;;;;;;13.27;10.75;;;;;;;8.93;100.00;62918.97;5046265;28;20412;-78
2023/04/22 04:41:15;;;;;;;12.23;10.85;;;;;;;8.96;100.00;62922.59;5045332;28;20198;-79
2023/04/22 04:43:45;;;;;;;14.48;11.25;;;;;;;8.83;100.00;62908.63;5046147;28;20249;-76
2023/04/22 04:46:11;;;;;;;11.85;10.52;;;;;;;8.64;100.00;62886.47;5044500;28;20213;-78
2023/04/22 04:48:39;;;;;;;16.15;10.60;;;;;;;8.55;100.00;62880.22;5043443;28;20443;-78
2023/04/22 04:51:07;;;;;;;18.80;11.75;;;;;;;8.58;100.00;62880.78;5040025;28;20240;-80
2023/04/22 04:53:34;;;;;;;16.42;11.20;;;;;;;8.78;100.00;62904.00;5043186;28;20213;-81
2023/04/22 04:56:01;;;;;;;11.80;10.48;;;;;;;8.95;100.00;62919.03;5038050;28;20199;-78
2023/04/22 04:58:28;;;;;;;13.73;10.38;;;;;;;9.15;100.00;62939.16;5033213;28;20283;-80
2023/04/22 05:00:55;;;;;;;16.35;11.07;;;;;;;9.19;100.00;62948.38;5041068;28;20269;-80
2023/04/22 05:03:21;;;;;;;12.02;10.82;;;;;;;9.18;100.00;62942.78;5037335;28;20258;-78
2023/04/22 05:05:48;;;;;;;11.82;10.05;;;;;;;9.03;100.00;62929.31;5039688;28;20220;-78
2023/04/22 05:08:17;;;;;;;10.43;9.35;;;;;;;8.99;100.00;62925.19;5041316;28;20286;-76
2023/04/22 05:10:44;;;;;;;13.63;10.48;;;;;;;8.91;100.00;62914.38;5030254;28;20264;-78
2023/04/22 05:13:11;;;;;;;19.75;10.98;;;;;;;9.03;100.00;62929.31;5026334;28;20238;-78
2023/04/22 05:15:38;;;;;;;14.18;10.55;;;;;;;9.07;100.00;62931.44;5029498;28;20210;-78
2023/04/22 05:18:05;;;;;;;13.60;11.23;;;;;;;9.07;100.00;62933.44;5035755;28;20234;-78
2023/04/22 05:20:32;;;;;;;16.77;11.15;;;;;;;9.14;100.00;62943.75;5029788;28;20510;-77
2023/04/22 05:22:59;;;;;;;18.83;10.93;;;;;;;9.19;100.00;62943.31;5029290;28;20237;-78
2023/04/22 05:25:27;;;;;;;14.00;11.30;;;;;;;9.27;100.00;62949.03;5029644;28;20206;-78
2023/04/22 05:27:54;;;;;;;15.27;10.77;;;;;;;9.51;100.00;62976.38;5039192;28;20245;-81
2023/04/22 05:30:21;;;;;;;12.88;11.30;;;;;;;9.69;100.00;63000.09;5040858;28;20237;-78
2023/04/22 05:32:49;;;;;;;11.65;10.05;;;;;;;9.70;100.00;62998.56;5041090;28;20222;-80
2023/04/22 05:35:19;;;;;;;14.93;10.23;;;;;;;9.91;100.00;63019.78;5034584;28;20194;-80
2023/04/22 05:37:46;;;;;;;13.95;10.38;;;;;;;9.94;100.00;63020.84;5043434;28;20230;-75
2023/04/22 05:40:13;;;;;;;12.73;11.43;;;;;;;9.91;100.00;63017.22;5042633;28;20210;-76
2023/04/22 05:42:41;;;;;;;14.85;12.77;;;;;;;10.08;100.00;63037.34;5043983;28;20218;-76
2023/04/22 05:45:09;;;;;;;19.67;12.65;;;;;;;10.10;100.00;63034.88;5043940;28;20249;-75
2023/04/22 05:47:35;;;;;;;20.23;11.95;;;;;;;10.15;100.00;63045.16;5045990;28;20229;-77
2023/04/22 05:50:02;;;;;;;14.85;11.35;;;;;;;10.26;100.00;63056.00;5044730;28;20196;-80
2023/04/22 05:55:46;;;;;;;15.40;11.57;;;;;;;10.45;100.00;63076.19;5184591;23;20258;-78
2023/04/22 05:58:15;;;;;;;13.18;10.63;;;;;;;10.27;100.00;63057.03;5031106;28;20230;-80
2023/04/22 06:00:42;;;;;;;19.05;11.80;;;;;;;10.37;100.00;63065.34;5030895;28;20236;-79
2023/04/22 06:03:08;;;;;;;16.63;12.30;;;;;;;10.35;100.00;63060.25;5029454;28;20222;-76
2023/04/22 06:05:35;;;;;;;14.27;11.98;;;;;;;10.27;100.00;63060.09;5026380;28;20499;-77
2023/04/22 06:08:03;;;;;;;15.85;11.75;;;;;;;10.37;100.00;63069.94;5008045;28;20223;-79
2023/04/22 06:10:30;;;;;;;13.23;11.25;;;;;;;10.40;100.00;63067.97;5026650;28;20202;-79
2023/04/22 06:12:57;;;;;;;13.38;11.30;;;;;;;10.67;100.00;63092.81;5026900;28;20293;-79
2023/04/22 06:15:26;;;;;;;12.93;11.00;;;;;;;10.76;100.00;63109.78;5017874;28;20261;-81
2023/04/22 06:17:52;;;;;;;17.90;10.93;;;;;;;11.06;100.00;63136.25;5022304;28;20233;-78
2023/04/22 06:20:19;;;;;;;17.15;9.75;;;;;;;11.08;98.42;63138.34;5028856;28;20201;-79
2023/04/22 06:22:46;;;;;;;13.55;10.98;;;;;;;11.15;98.23;63142.50;5023433;28;20230;-77
2023/04/22 06:25:13;;;;;;;18.65;10.57;;;;;;;11.16;98.60;63148.66;5017935;28;20234;-79
2023/04/22 06:27:40;;;;;;;18.85;12.00;;;;;;;11.11;100.00;63146.53;5029894;28;20444;-82
2023/04/22 06:30:08;;;;;;;12.43;10.18;;;;;;;11.32;96.70;63160.63;5028842;28;20461;-78
2023/04/22 06:32:37;;;;;;;14.68;10.73;;;;;;;11.24;96.02;63157.47;5029544;28;20258;-76
2023/04/22 06:35:05;;;;;;;10.77;9.63;;;;;;;11.29;95.76;63164.66;5029155;28;20221;-77
2023/04/22 06:37:32;;;;;;;14.75;9.02;;;;;;;11.33;96.17;63166.78;5028377;28;20245;-79
2023/04/22 06:39:59;;;;;;;15.90;9.85;;;;;;;11.58;93.71;63189.59;5031268;28;20245;-80
2023/04/22 06:42:26;;;;;;;12.18;9.18;;;;;;;11.66;91.20;63195.38;5027655;28;20226;-78
2023/04/22 06:44:53;;;;;;;12.95;9.90;;;;;;;11.74;91.17;63210.78;5027827;28;20198;-77
2023/04/22 06:47:20;;;;;;;14.18;9.65;;;;;;;11.72;89.74;63206.69;5033391;28;20222;-77
2023/04/22 06:49:49;;;;;;;10.30;8.82;;;;;;;11.88;86.73;63220.72;5028085;28;20237;-78
2023/04/22 06:52:16;;;;;;;12.18;9.20;;;;;;;11.96;87.04;63229.00;5027993;28;20237;-77
2023/04/22 06:54:43;;;;;;;9.30;8.30;;;;;;;11.98;84.56;63233.09;5030356;28;20210;-77
2023/04/22 06:57:10;;;;;;;13.65;9.02;;;;;;;11.72;86.29;63206.16;5027173;28;20282;-77
2023/04/22 06:59:37;;;;;;;10.18;8.13;;;;;;;11.95;87.51;63230.50;5027892;28;20200;-79
2023/04/22 07:02:04;;;;;;;11.05;8.35;;;;;;;12.16;83.02;63246.66;5030296;28;20226;-81
2023/04/22 07:04:31;;;;;;;12.45;9.20;;;;;;;12.19;81.85;63255.38;5027176;28;20218;-79
2023/04/22 07:07:00;;;;;;;11.65;9.38;;;;;;;12.33;81.17;63269.38;5028502;28;20237;-78
2023/04/22 07:09:27;;;;;;;9.70;8.23;;;;;;;12.32;79.99;63268.34;5030211;28;20266;-78
2023/04/22 07:11:56;;;;;;;15.80;8.60;;;;;;;12.22;80.81;63257.97;5031706;28;20234;-81
2023/04/22 07:14:25;;;;;;;8.57;7.63;;;;;;;12.37;80.71;63276.59;5031331;28;20203;-80
2023/04/22 07:16:52;;;;;;;11.45;9.50;;;;;;;12.64;80.83;63293.84;5031854;28;20237;-81
2023/04/22 07:19:19;;;;;;;9.32;8.30;;;;;;;12.80;78.55;63321.19;5030185;28;20199;-81
2023/04/22 07:21:45;;;;;;;9.10;8.20;;;;;;;12.76;76.25;63311.41;5028178;28;20539;-79
2023/04/22 07:24:14;;;;;;;10.43;9.32;;;;;;;12.36;78.81;63270.47;5021615;28;20345;-78
2023/04/22 07:26:42;;;;;;;10.27;8.13;;;;;;;12.27;78.56;63261.13;5044327;28;20193;-77
2023/04/22 07:29:10;;;;;;;11.88;8.63;;;;;;;12.38;79.61;63275.09;5043407;28;20203;-80
2023/04/22 07:31:37;;;;;;;11.35;8.80;;;;;;;12.64;78.57;63301.53;5030268;28;20262;-79
2023/04/22 07:34:03;;;;;;;9.77;8.77;;;;;;;12.72;76.82;63304.69;5025856;28;20199;-77
2023/04/22 07:36:31;;;;;;;13.63;8.90;;;;;;;12.51;75.84;63288.56;5026725;28;20222;-77
2023/04/22 07:39:08;;;;;;;17.95;8.82;;;;;;;12.50;77.00;63281.91;5034048;28;20239;-79
2023/04/22 07:41:36;;;;;;;11.40;8.65;;;;;;;12.64;77.57;63301.53;5030981;28;20526;-79
2023/04/22 07:44:03;;;;;;;10.25;8.13;;;;;;;12.88;75.88;63320.78;5033202;28;20207;-79
2023/04/22 07:46:30;;;;;;;9.77;8.32;;;;;;;13.09;75.78;63345.66;5032394;28;20233;-80
2023/04/22 07:48:57;;;;;;;9.32;7.30;;;;;;;13.34;70.58;63371.06;5028960;28;20203;-78
2023/04/22 07:51:26;;;;;;;8.90;8.10;;;;;;;13.36;69.01;63373.13;5029911;28;20222;-79
2023/04/22 07:53:52;;;;;;;9.07;8.18;;;;;;;13.45;69.23;63382.47;5030558;28;20228;-79
2023/04/22 07:56:19;;;;;;;12.85;8.45;;;;;;;13.75;67.53;63416.19;5030973;28;20487;-79
2023/04/22 07:58:48;;;;;;;15.85;9.70;;;;;;;13.93;66.48;63437.41;5024756;28;20214;-81
2023/04/22 08:01:15;;;;;;;12.48;8.07;;;;;;;14.06;66.32;63448.34;5029961;28;20213;-81
2023/04/22 08:03:42;;;;;;;9.18;8.13;;;;;;;14.23;65.51;63465.47;5034341;28;20214;-80
2023/04/22 08:06:09;;;;;;;8.57;7.78;;;;;;;14.39;63.56;63479.56;5029122;28;20206;-80
2023/04/22 08:08:35;;;;;;;10.65;8.25;;;;;;;14.15;63.51;63457.19;5030807;28;20213;-78
2023/04/22 08:11:03;;;;;;;12.48;8.48;;;;;;;13.94;65.05;63428.72;5029228;28;20198;-80
2023/04/22 08:13:30;;;;;;;9.82;8.10;;;;;;;14.08;65.14;63449.91;5035391;28;20223;-79
2023/04/22 08:15:59;;;;;;;11.52;8.50;;;;;;;14.08;65.38;63457.59;5032926;28;20194;-78
2023/04/22 08:18:25;;;;;;;12.25;7.82;;;;;;;14.18;65.49;63460.28;5025912;28;20218;-79
2023/04/22 08:20:52;;;;;;;9.38;8.43;;;;;;;14.07;65.33;63441.19;5026723;28;20240;-77
2023/04/22 08:23:20;;;;;;;13.55;8.57;;;;;;;14.02;66.49;63438.56;5026463;28;20218;-79
2023/04/22 08:25:47;;;;;;;8.95;8.10;;;;;;;14.21;65.78;63465.97;5030270;28;20423;-78
2023/04/22 08:28:14;;;;;;;14.52;8.48;;;;;;;14.46;63.62;63492.47;5028430;28;20234;-78
2023/04/22 08:30:41;;;;;;;11.02;8.15;;;;;;;14.32;62.97;63475.38;5026578;28;20203;-78
2023/04/22 08:33:10;;;;;;;8.50;7.35;;;;;;;14.32;63.67;63470.25;5027976;28;20247;-82
2023/04/22 08:35:37;;;;;;;9.05;8.15;;;;;;;14.41;63.17;63479.59;5027935;28;20517;-80
2023/04/22 08:38:04;;;;;;;10.20;8.15;;;;;;;14.70;63.98;63514.81;5030965;28;20230;-81
2023/04/22 08:40:31;;;;;;;8.25;7.45;;;;;;;15.02;61.14;63550.13;5028746;28;20198;-79
2023/04/22 08:42:58;;;;;;;9.48;6.93;;;;;;;15.21;58.16;63566.78;5030896;28;20266;-79
2023/04/22 08:45:25;;;;;;;10.32;6.10;;;;;;;15.28;57.87;63579.72;5028680;28;20194;-79
2023/04/22 08:47:53;;;;;;;8.57;6.38;;;;;;;15.44;55.89;63593.78;5030664;28;20215;-80
2023/04/22 08:50:24;;;;;;;6.70;6.00;;;;;;;15.48;55.83;63589.72;5030826;28;20206;-80
2023/04/22 08:52:51;;;;;;;6.40;5.80;;;;;;;15.28;55.58;63576.63;5025791;28;20237;-77
2023/04/22 08:55:19;;;;;;;8.98;7.15;;;;;;;15.12;55.71;63557.44;5025341;28;20210;-79
2023/04/22 08:57:47;;;;;;;7.78;6.38;;;;;;;15.23;55.81;63571.94;5027717;28;20215;-81
2023/04/22 09:00:17;;;;;;;6.47;5.28;;;;;;;15.05;55.60;63551.19;5025407;28;20201;-78
2023/04/22 09:02:44;;;;;;;7.43;5.38;;;;;;;14.97;56.14;63540.31;5021711;28;20280;-77
2023/04/22 09:05:13;;;;;;;8.13;6.57;;;;;;;14.84;56.04;63529.38;5028932;28;20270;-77
2023/04/22 09:07:42;;;;;;;9.27;5.47;;;;;;;14.95;55.29;63548.50;5028667;28;20264;-80
2023/04/22 09:10:10;;;;;;;7.22;5.25;;;;;;;14.92;55.55;63537.69;5024849;28;20221;-78
2023/04/22 09:12:38;;;;;;;4.63;4.28;;;;;;;14.92;54.87;63539.72;5025071;28;20232;-78
2023/04/22 09:15:07;;;;;;;5.93;5.43;;;;;;;15.10;54.94;63555.34;5025096;28;20198;-80
2023/04/22 09:17:37;;;;;;;6.03;4.90;;;;;;;15.14;53.23;63559.50;5025821;28;20565;-77
2023/04/22 09:20:11;;;;;;;5.97;5.05;;;;;;;15.39;52.68;63586.00;5026824;28;20205;-80
2023/04/22 09:22:39;;;;;;;9.85;4.38;;;;;;;15.42;51.32;63589.16;5025025;28;20265;-78
2023/04/22 09:25:16;;;;;;;6.68;4.03;;;;;;;15.39;50.80;63585.50;5026275;28;20194;-78
2023/04/22 09:27:43;;;;;;;8.07;5.63;;;;;;;15.14;52.91;63562.59;5026931;28;20337;-81
2023/04/22 09:30:10;;;;;;;8.43;5.50;;;;;;;15.40;52.56;63581.94;5031961;28;20194;-78
2023/04/22 09:32:37;;;;;;;10.00;4.85;;;;;;;15.62;51.40;63615.06;5022787;28;20494;-79
2023/04/22 09:35:06;;;;;;;7.40;5.63;;;;;;;15.67;50.13;63617.69;5021272;28;20195;-77
2023/04/22 09:37:33;;;;;;;5.78;5.20;;;;;;;15.73;51.80;63623.94;5017980;28;20278;-75
2023/04/22 09:40:00;;;;;;;5.13;4.60;;;;;;;15.87;49.59;63638.50;5014626;28;20263;-75
2023/04/22 09:42:28;;;;;;;9.85;4.93;;;;;;;16.05;48.43;63657.22;5014080;28;20286;-75
2023/04/22 09:44:55;;;;;;;5.68;4.75;;;;;;;16.12;49.41;63663.97;5024884;28;20228;-76
2023/04/22 09:47:23;;;;;;;5.90;4.60;;;;;;;16.35;48.00;63682.22;5028849;28;20278;-75
2023/04/22 09:49:50;;;;;;;7.93;4.15;;;;;;;16.13;46.96;63662.94;5029641;28;20269;-75
2023/04/22 09:52:25;;;;;;;4.85;4.53;;;;;;;16.25;45.98;63674.94;5035598;28;20233;-75
2023/04/22 09:54:53;;;;;;;5.50;3.90;;;;;;;16.30;44.52;63682.69;5035669;28;20225;-74
2023/04/22 09:57:21;;;;;;;4.32;3.67;;;;;;;16.29;45.54;63684.22;5036733;28;20218;-76
2023/04/22 09:59:50;;;;;;;8.23;3.95;;;;;;;16.61;43.64;63714.97;5036643;28;20210;-74
2023/04/22 10:02:17;;;;;;;4.07;3.78;;;;;;;17.02;44.43;63752.47;5030131;28;20218;-75
2023/04/22 10:04:44;;;;;;;5.70;3.85;;;;;;;17.05;41.61;63753.03;5029159;28;20217;-74
2023/04/22 10:07:11;;;;;;;6.43;3.85;;;;;;;17.14;42.50;63769.59;5028987;28;20249;-75
2023/04/22 10:09:38;;;;;;;4.28;3.88;;;;;;;16.55;41.99;63708.22;5030009;28;20217;-76
2023/04/22 10:12:05;;;;;;;3.53;3.33;;;;;;;16.16;41.42;63665.56;5037296;28;20234;-76
2023/04/22 10:14:32;;;;;;;3.03;2.72;;;;;;;15.79;48.63;63627.59;5030880;28;20206;-80
2023/04/22 10:17:03;;;;;;;5.00;2.90;;;;;;;15.81;47.40;63629.16;5032022;28;20222;-78
2023/04/22 10:19:32;;;;;;;2.63;2.42;;;;;;;15.18;47.66;63564.19;5029461;28;20373;-77
2023/04/22 10:22:03;;;;;;;3.25;1.85;;;;;;;15.11;47.75;63554.34;5030044;28;20222;-78
2023/04/22 10:24:35;;;;;;;2.25;2.05;;;;;;;15.23;47.10;63574.50;5018544;28;20203;-76
2023/04/22 10:27:05;;;;;;;2.50;2.30;;;;;;;15.07;47.56;63555.84;5013571;28;20249;-80
2023/04/22 10:29:37;;;;;;;3.17;2.47;;;;;;;14.93;49.33;63541.28;5040494;28;20199;-78
2023/04/22 10:32:07;;;;;;;6.07;2.17;;;;;;;15.12;46.49;63560.50;5034776;28;20226;-78
2023/04/22 10:34:37;;;;;;;2.97;2.72;;;;;;;15.13;47.59;63561.03;5031089;28;20209;-77
2023/04/22 10:37:08;;;;;;;2.47;2.28;;;;;;;14.93;48.73;63538.72;5029677;28;20269;-78
2023/04/22 10:39:35;;;;;;;3.00;2.08;;;;;;;15.43;48.29;63592.75;5030522;28;20495;-78
2023/04/22 10:42:11;;;;;;;3.60;1.80;;;;;;;15.58;44.92;63602.69;5042458;28;20245;-76
2023/04/22 10:44:49;;;;;;;3.90;3.50;;;;;;;15.50;44.97;63594.88;5011117;28;20222;-78
2023/04/22 10:47:29;;;;;;;2.85;2.17;;;;;;;15.47;45.93;63593.81;5028329;28;20224;-78
2023/04/22 10:50:20;;;;;;;6.72;3.38;;;;;;;15.70;45.94;63615.66;5032748;28;20194;-77
2023/04/22 10:52:49;;;;;;;2.80;2.60;;;;;;;15.60;46.82;63607.34;5027973;28;20229;-77
2023/04/22 10:55:16;;;;;;;3.25;2.10;;;;;;;15.57;47.37;63599.06;5031771;28;20411;-79
2023/04/22 10:57:45;;;;;;;2.90;2.70;;;;;;;15.63;47.23;63613.03;5031532;28;20471;-78
2023/04/22 11:00:27;;;;;;;3.70;2.80;;;;;;;15.90;47.77;63641.09;5040943;28;20202;-80
2023/04/22 11:03:25;;;;;;;4.30;3.13;;;;;;;16.31;49.57;63678.59;5036361;28;20210;-78
2023/04/22 11:06:16;;;;;;;4.43;4.10;;;;;;;16.40;46.64;63690.00;5031293;28;20206;-79
2023/04/22 11:08:46;;;;;;;3.92;3.55;;;;;;;16.43;44.99;63693.13;5031119;28;20214;-78
2023/04/22 11:11:14;;;;;;;4.10;2.95;;;;;;;16.61;45.39;63711.88;5039944;28;20201;-81
2023/04/22 11:13:42;;;;;;;5.70;3.60;;;;;;;16.94;44.03;63743.63;5049661;28;20233;-79
2023/04/22 11:16:10;;;;;;;4.03;3.63;;;;;;;17.06;43.73;63758.69;5031584;28;20202;-80
2023/04/22 11:18:39;;;;;;;3.90;2.60;;;;;;;17.21;43.72;63777.41;5033830;28;20218;-79
2023/04/22 11:21:07;;;;;;;3.45;3.05;;;;;;;17.24;44.41;63780.53;5043938;28;20400;-80
2023/04/22 11:23:35;;;;;;;4.97;2.80;;;;;;;17.30;43.81;63781.63;5029786;28;20226;-79
2023/04/22 11:26:05;;;;;;;2.90;2.80;;;;;;;17.23;43.98;63784.13;5041741;28;20197;-79
2023/04/22 11:28:31;;;;;;;2.38;2.28;;;;;;;17.43;43.20;63797.22;5041834;28;20234;-77
2023/04/22 11:31:03;;;;;;;5.57;3.42;;;;;;;17.13;41.71;63766.00;5040670;28;20416;-78
2023/04/22 11:33:30;;;;;;;3.28;2.42;;;;;;;17.38;42.58;63797.16;5027332;28;20222;-80
2023/04/22 11:35:58;;;;;;;2.35;1.52;;;;;;;17.34;41.78;63790.94;5011671;28;20488;-80